Time;durP1;ratioP1;P1;durP2;ratioP2;P2;SDS_P1;SDS_P2;PMS_P1;PMS_P2;Temp;Humidity;BMP_temperature;BMP_pressure;BME280_temperature;BME280_humidity;BME280_pressure;Samples;Min_cycle;Max_cycle;Signal;HPM_P1;HPM_P2
2021/11/23 00:00:56;;;;;;;76.40;47.33;;;;;;;-140.05;100.00;61859.38;4868528;29;20434;-73
2021/11/23 00:03:23;;;;;;;78.40;48.17;;;;;;;-140.05;100.00;61859.38;4865784;29;20423;-66
2021/11/23 00:05:50;;;;;;;75.17;47.87;;;;;;;-140.05;100.00;61859.38;4864754;29;20449;-70
2021/11/23 00:08:18;;;;;;;79.73;50.43;;;;;;;-140.05;100.00;61859.38;4873077;29;20793;-70
2021/11/23 00:10:46;;;;;;;84.97;52.33;;;;;;;-140.05;100.00;61859.38;4869240;29;20443;-65
2021/11/23 00:13:16;;;;;;;88.60;51.10;;;;;;;-140.05;100.00;61859.38;4865154;29;20550;-67
2021/11/23 00:15:44;;;;;;;83.23;51.30;;;;;;;-140.05;100.00;61859.38;4876686;29;20482;-69
2021/11/23 00:18:13;;;;;;;78.53;49.97;;;;;;;-140.05;100.00;61859.38;4876405;29;21114;-68
2021/11/23 00:20:42;;;;;;;89.30;53.03;;;;;;;-140.05;100.00;61859.38;4906422;29;20526;-70
2021/11/23 00:23:11;;;;;;;82.17;50.77;;;;;;;-140.05;100.00;61859.38;4864379;29;20447;-69
2021/11/23 00:25:39;;;;;;;76.70;47.80;;;;;;;-140.05;100.00;61859.38;4864791;29;20615;-68
2021/11/23 00:28:06;;;;;;;72.17;47.57;;;;;;;-140.05;100.00;61859.38;4865175;29;21323;-69
2021/11/23 00:30:33;;;;;;;78.30;48.03;;;;;;;-140.05;100.00;61859.38;4875736;29;20439;-66
2021/11/23 00:33:01;;;;;;;67.67;46.97;;;;;;;-140.05;100.00;61859.38;4880807;29;20514;-67
2021/11/23 00:35:28;;;;;;;83.20;53.67;;;;;;;-140.05;100.00;61859.38;4879878;29;20572;-68
2021/11/23 00:37:59;;;;;;;80.77;51.33;;;;;;;-140.05;100.00;61859.38;4869762;29;20443;-73
2021/11/23 00:40:27;;;;;;;101.47;65.27;;;;;;;-140.05;100.00;61859.38;4862425;29;20714;-67
2021/11/23 00:42:54;;;;;;;108.47;68.10;;;;;;;-140.05;100.00;61859.38;4866685;29;20486;-73
2021/11/23 00:45:21;;;;;;;139.60;87.63;;;;;;;-140.05;100.00;61859.38;4865503;29;20483;-69
2021/11/23 00:47:48;;;;;;;149.57;98.93;;;;;;;-140.05;100.00;61859.38;4869956;29;20812;-65
2021/11/23 00:50:16;;;;;;;141.70;91.83;;;;;;;-140.05;100.00;61859.38;4869678;29;20565;-67
2021/11/23 00:52:44;;;;;;;169.77;107.77;;;;;;;-140.05;100.00;61859.38;4873042;29;20458;-69
2021/11/23 00:55:12;;;;;;;139.20;88.90;;;;;;;-140.05;100.00;61859.38;4880250;29;20585;-64
2021/11/23 00:57:40;;;;;;;113.90;71.00;;;;;;;-140.05;100.00;61859.38;4880155;29;20435;-71
2021/11/23 01:00:09;;;;;;;103.63;68.73;;;;;;;-140.05;100.00;61859.38;4867436;29;20454;-76
2021/11/23 01:02:37;;;;;;;103.03;63.60;;;;;;;-140.05;100.00;61859.38;4868142;29;20537;-69
2021/11/23 01:05:05;;;;;;;116.03;76.10;;;;;;;-140.05;100.00;61859.38;4868218;29;20451;-73
2021/11/23 01:07:32;;;;;;;145.97;87.83;;;;;;;-140.05;100.00;61859.38;4868661;29;20435;-68
2021/11/23 01:10:00;;;;;;;139.67;88.70;;;;;;;-140.05;100.00;61859.38;4870440;29;20542;-69
2021/11/23 01:12:27;;;;;;;150.03;96.93;;;;;;;-140.05;100.00;61859.38;4893128;29;20538;-66
2021/11/23 01:14:55;;;;;;;160.80;103.73;;;;;;;-140.05;100.00;61859.38;4879267;29;20490;-71
2021/11/23 01:17:21;;;;;;;172.80;109.53;;;;;;;-140.05;100.00;61859.38;4878965;29;20442;-64
2021/11/23 01:19:48;;;;;;;176.50;113.40;;;;;;;-140.05;100.00;61859.38;4879856;29;20439;-68
2021/11/23 01:22:17;;;;;;;182.67;114.80;;;;;;;-140.05;100.00;61859.38;4878861;29;20415;-69
2021/11/23 01:24:44;;;;;;;201.63;124.20;;;;;;;-140.05;100.00;61859.38;4879737;29;20526;-63
2021/11/23 01:27:11;;;;;;;189.43;117.73;;;;;;;-140.05;100.00;61859.38;4879049;29;20442;-66
2021/11/23 01:29:38;;;;;;;209.67;126.17;;;;;;;-140.05;100.00;61859.38;4879228;29;21000;-65
2021/11/23 01:32:06;;;;;;;200.63;128.70;;;;;;;-140.05;100.00;61859.38;4864222;29;21185;-69
2021/11/23 01:34:36;;;;;;;212.57;134.77;;;;;;;-140.05;100.00;61859.38;4868067;29;20486;-67
2021/11/23 01:37:03;;;;;;;224.80;136.83;;;;;;;-140.05;100.00;61859.38;4873086;29;20445;-65
2021/11/23 01:39:30;;;;;;;219.73;134.43;;;;;;;-140.05;100.00;61859.38;4863246;29;20593;-69
2021/11/23 01:41:58;;;;;;;203.53;129.33;;;;;;;-140.05;100.00;61859.38;4875520;29;20451;-66
2021/11/23 01:44:25;;;;;;;198.40;127.30;;;;;;;-140.05;100.00;61859.38;4878675;29;20515;-73
2021/11/23 01:46:52;;;;;;;189.10;122.73;;;;;;;-140.05;100.00;61859.38;4865496;29;20435;-67
2021/11/23 01:49:19;;;;;;;176.27;112.27;;;;;;;-140.05;100.00;61859.38;4867907;29;20906;-69
2021/11/23 01:51:46;;;;;;;164.27;107.03;;;;;;;-140.05;100.00;61859.38;4866574;29;20450;-65
2021/11/23 01:54:13;;;;;;;168.50;110.33;;;;;;;-140.05;100.00;61859.38;4875798;29;20807;-66
2021/11/23 01:56:41;;;;;;;154.37;101.40;;;;;;;-140.05;100.00;61859.38;4878459;29;20824;-64
2021/11/23 01:59:08;;;;;;;140.27;90.13;;;;;;;-140.05;100.00;61859.38;4877415;29;20805;-63
2021/11/23 02:01:35;;;;;;;144.20;92.17;;;;;;;-140.05;100.00;61859.38;4897291;29;20435;-63
2021/11/23 02:04:04;;;;;;;145.87;93.07;;;;;;;-140.05;100.00;61859.38;4868704;29;20462;-70
2021/11/23 02:06:33;;;;;;;132.03;87.03;;;;;;;-140.05;100.00;61859.38;4866452;29;20438;-74
2021/11/23 02:09:02;;;;;;;131.07;87.83;;;;;;;-140.05;100.00;61859.38;4865511;29;21319;-64
2021/11/23 02:11:29;;;;;;;128.53;84.63;;;;;;;-140.05;100.00;61859.38;4869788;29;20547;-69
2021/11/23 02:14:01;;;;;;;129.63;82.13;;;;;;;-140.05;100.00;61859.38;4878031;29;20586;-67
2021/11/23 02:16:28;;;;;;;128.23;82.20;;;;;;;-140.05;100.00;61859.38;4875281;29;20475;-71
2021/11/23 02:18:55;;;;;;;126.13;80.43;;;;;;;-140.05;100.00;61859.38;4877684;29;20818;-69
2021/11/23 02:21:23;;;;;;;127.53;82.37;;;;;;;-140.05;100.00;61859.38;4875611;29;20738;-68
2021/11/23 02:23:50;;;;;;;127.47;82.70;;;;;;;-140.05;100.00;61859.38;4877614;29;20459;-68
2021/11/23 02:26:17;;;;;;;126.47;84.83;;;;;;;-140.05;100.00;61859.38;4877826;29;20527;-65
2021/11/23 02:28:44;;;;;;;131.53;86.03;;;;;;;-140.05;100.00;61859.38;4877674;29;20446;-68
2021/11/23 02:31:12;;;;;;;127.27;80.10;;;;;;;-140.05;100.00;61859.38;4878095;29;20439;-70
2021/11/23 02:33:39;;;;;;;127.50;84.27;;;;;;;-140.05;100.00;61859.38;4877849;29;20459;-69
2021/11/23 02:36:09;;;;;;;125.37;81.70;;;;;;;-140.05;100.00;61859.38;4878061;29;21013;-70
2021/11/23 02:38:38;;;;;;;128.53;81.60;;;;;;;-140.05;100.00;61859.38;4867118;29;20521;-71
2021/11/23 02:41:08;;;;;;;122.70;79.87;;;;;;;-140.05;100.00;61859.38;4868477;29;20908;-70
2021/11/23 02:43:36;;;;;;;128.07;83.23;;;;;;;-140.05;100.00;61859.38;4866715;29;20523;-65
2021/11/23 02:46:03;;;;;;;128.17;84.20;;;;;;;-140.05;100.00;61859.38;4873769;29;20443;-70
2021/11/23 02:48:31;;;;;;;120.40;81.07;;;;;;;-140.05;100.00;61859.38;4877353;29;20462;-69
2021/11/23 02:53:31;;;;;;;123.47;80.20;;;;;;;-140.05;100.00;61859.38;4866367;29;20450;-70
2021/11/23 02:56:00;;;;;;;122.53;80.83;;;;;;;-140.05;100.00;61859.38;4866465;29;20478;-70
2021/11/23 02:58:30;;;;;;;129.00;81.43;;;;;;;-140.05;100.00;61859.38;4866212;29;20447;-65
2021/11/23 03:01:01;;;;;;;121.57;78.07;;;;;;;-140.05;100.00;61859.38;4863688;29;20917;-74
2021/11/23 03:03:28;;;;;;;122.67;82.47;;;;;;;-140.05;100.00;61859.38;4866646;29;21214;-67
2021/11/23 03:05:57;;;;;;;118.53;79.13;;;;;;;-140.05;100.00;61859.38;4877722;29;20467;-63
2021/11/23 03:08:25;;;;;;;116.17;78.00;;;;;;;-140.05;100.00;61859.38;4876835;29;20812;-65
2021/11/23 03:10:53;;;;;;;120.07;79.23;;;;;;;-140.05;100.00;61859.38;4864553;29;20432;-68
2021/11/23 03:13:20;;;;;;;114.63;78.03;;;;;;;-140.05;100.00;61859.38;4865090;29;20446;-63
2021/11/23 03:15:47;;;;;;;127.33;81.63;;;;;;;-140.05;100.00;61859.38;4865453;29;20537;-69
2021/11/23 03:18:15;;;;;;;131.93;85.20;;;;;;;-140.05;100.00;61859.38;4867365;29;20435;-63
2021/11/23 03:20:44;;;;;;;125.60;83.30;;;;;;;-140.05;100.00;61859.38;4868347;29;20919;-67
2021/11/23 03:23:12;;;;;;;128.37;84.57;;;;;;;-140.05;100.00;61859.38;4877190;29;20526;-71
2021/11/23 03:25:40;;;;;;;124.37;82.73;;;;;;;-140.05;100.00;61859.38;4877445;29;20443;-61
2021/11/23 03:28:07;;;;;;;132.07;84.83;;;;;;;-140.05;100.00;61859.38;4887604;29;20820;-65
2021/11/23 03:30:35;;;;;;;122.30;79.33;;;;;;;-140.05;100.00;61859.38;4876777;29;20479;-70
2021/11/23 03:33:05;;;;;;;121.33;81.10;;;;;;;-140.05;100.00;61859.38;4876666;29;20443;-63
2021/11/23 03:35:36;;;;;;;124.73;83.23;;;;;;;-140.05;100.00;61859.38;4876520;29;20482;-69
2021/11/23 03:38:05;;;;;;;123.67;84.67;;;;;;;-140.05;100.00;61859.38;4876696;29;20567;-69
2021/11/23 03:40:34;;;;;;;126.33;81.37;;;;;;;-140.05;100.00;61859.38;4873801;29;20443;-66
2021/11/23 03:43:02;;;;;;;136.37;90.00;;;;;;;-140.05;100.00;61859.38;4875858;29;20454;-72
2021/11/23 03:45:29;;;;;;;144.50;93.90;;;;;;;-140.05;100.00;61859.38;4876727;29;20438;-70
2021/11/23 03:47:57;;;;;;;139.43;91.83;;;;;;;-140.05;100.00;61859.38;4875946;29;20447;-67
2021/11/23 03:50:26;;;;;;;124.47;84.03;;;;;;;-140.05;100.00;61859.38;4876700;29;20443;-67
2021/11/23 03:52:55;;;;;;;129.27;86.70;;;;;;;-140.05;100.00;61859.38;4863151;29;20482;-67
2021/11/23 03:55:23;;;;;;;126.80;84.97;;;;;;;-140.05;100.00;61859.38;4867431;29;20478;-69
2021/11/23 03:57:52;;;;;;;131.63;85.40;;;;;;;-140.05;100.00;61859.38;4868654;29;20451;-72
2021/11/23 04:00:21;;;;;;;137.90;90.80;;;;;;;-140.05;100.00;61859.38;4866396;29;20446;-67
2021/11/23 04:02:49;;;;;;;146.07;97.23;;;;;;;-140.05;100.00;61859.38;4869612;29;20966;-63
2021/11/23 04:05:17;;;;;;;148.37;95.30;;;;;;;-140.05;100.00;61859.38;4876611;29;20439;-67
2021/11/23 04:07:44;;;;;;;135.77;93.90;;;;;;;-140.05;100.00;61859.38;4875715;29;20897;-71
2021/11/23 04:10:14;;;;;;;146.57;98.87;;;;;;;-140.05;100.00;61859.38;4873645;29;20435;-70
2021/11/23 04:12:41;;;;;;;146.67;97.17;;;;;;;-140.05;100.00;61859.38;4876408;29;20876;-69
2021/11/23 04:15:09;;;;;;;146.97;95.73;;;;;;;-140.05;100.00;61859.38;4876286;29;20926;-67
2021/11/23 04:17:36;;;;;;;145.00;95.67;;;;;;;-140.05;100.00;61859.38;4875432;29;20518;-70
2021/11/23 04:20:05;;;;;;;138.80;91.30;;;;;;;-140.05;100.00;61859.38;4876086;29;20988;-72
2021/11/23 04:22:33;;;;;;;146.67;97.47;;;;;;;-140.05;100.00;61859.38;4875794;29;20459;-71
2021/11/23 04:25:00;;;;;;;149.57;94.77;;;;;;;-140.05;100.00;61859.38;4876649;29;20483;-66
2021/11/23 04:27:29;;;;;;;138.93;91.73;;;;;;;-140.05;100.00;61859.38;4873135;29;21089;-71
2021/11/23 04:29:56;;;;;;;131.07;90.97;;;;;;;-140.05;100.00;61859.38;4876462;29;20438;-68
2021/11/23 04:32:23;;;;;;;133.07;88.53;;;;;;;-140.05;100.00;61859.38;4875869;29;20447;-68
2021/11/23 04:34:50;;;;;;;134.53;90.73;;;;;;;-140.05;100.00;61859.38;4876462;29;20441;-71
2021/11/23 04:37:17;;;;;;;134.33;91.07;;;;;;;-140.05;100.00;61859.38;4875795;29;20486;-67
2021/11/23 04:39:44;;;;;;;129.83;88.70;;;;;;;-140.05;100.00;61859.38;4872919;29;20497;-69
2021/11/23 04:42:11;;;;;;;142.67;95.67;;;;;;;-140.05;100.00;61859.38;4876028;29;20439;-68
2021/11/23 04:44:38;;;;;;;143.93;101.10;;;;;;;-140.05;100.00;61859.38;4876501;29;20776;-66
2021/11/23 04:47:06;;;;;;;140.07;95.40;;;;;;;-140.05;100.00;61859.38;4876689;29;20443;-64
2021/11/23 04:49:33;;;;;;;143.03;98.90;;;;;;;-140.05;100.00;61859.38;4876064;29;20439;-71
2021/11/23 04:52:02;;;;;;;140.47;98.53;;;;;;;-140.05;100.00;61859.38;4870344;29;20451;-69
2021/11/23 04:54:30;;;;;;;154.93;109.83;;;;;;;-140.05;100.00;61859.38;4863414;29;20454;-69
2021/11/23 04:56:57;;;;;;;147.57;103.67;;;;;;;-140.05;100.00;61859.38;4867028;29;20474;-65
2021/11/23 04:59:25;;;;;;;146.33;99.73;;;;;;;-140.05;100.00;61859.38;4867083;29;20466;-69
2021/11/23 05:01:53;;;;;;;144.97;101.37;;;;;;;-140.05;100.00;61859.38;4865216;29;20439;-70
2021/11/23 05:04:20;;;;;;;147.80;96.17;;;;;;;-140.05;100.00;61859.38;4861699;29;20443;-67
2021/11/23 05:06:47;;;;;;;139.43;101.33;;;;;;;-140.05;100.00;61859.38;4874660;29;20435;-67
2021/11/23 05:09:14;;;;;;;156.93;106.07;;;;;;;-140.05;100.00;61859.38;4875935;29;20446;-74
2021/11/23 05:11:46;;;;;;;152.97;103.87;;;;;;;-140.05;100.00;61859.38;4875548;29;20435;-70
2021/11/23 05:14:13;;;;;;;153.17;105.33;;;;;;;-140.05;100.00;61859.38;4876067;29;20510;-65
2021/11/23 05:16:40;;;;;;;144.30;103.57;;;;;;;-140.05;100.00;61859.38;4874606;29;20518;-70
2021/11/23 05:19:07;;;;;;;145.30;100.23;;;;;;;-140.05;100.00;61859.38;4875501;29;20439;-65
2021/11/23 05:21:34;;;;;;;144.83;102.80;;;;;;;-140.05;100.00;61859.38;4875926;29;21126;-67
2021/11/23 05:24:02;;;;;;;150.53;103.87;;;;;;;-140.05;100.00;61859.38;4875625;29;20502;-69
2021/11/23 05:26:29;;;;;;;156.97;106.07;;;;;;;-140.05;100.00;61859.38;4875101;29;20435;-76
2021/11/23 05:28:56;;;;;;;148.57;103.83;;;;;;;-140.05;100.00;61859.38;4874711;29;20439;-63
2021/11/23 05:31:23;;;;;;;147.30;103.03;;;;;;;-140.05;100.00;61859.38;4876103;29;20662;-69
2021/11/23 05:33:50;;;;;;;150.13;101.50;;;;;;;-140.05;100.00;61859.38;4876717;29;20449;-67
2021/11/23 05:36:17;;;;;;;153.57;104.77;;;;;;;-140.05;100.00;61859.38;4879186;29;20486;-61
2021/11/23 05:38:44;;;;;;;149.17;101.43;;;;;;;-140.05;100.00;61859.38;4878178;29;20862;-61
2021/11/23 05:41:11;;;;;;;147.07;100.40;;;;;;;-140.05;100.00;61859.38;4878635;29;20447;-69
2021/11/23 05:43:38;;;;;;;144.43;102.27;;;;;;;-140.05;100.00;61859.38;4877968;29;20443;-72
2021/11/23 05:46:05;;;;;;;145.37;101.53;;;;;;;-140.05;100.00;61859.38;4878219;29;20434;-68
2021/11/23 05:48:32;;;;;;;150.23;105.33;;;;;;;-140.05;100.00;61859.38;4878300;29;20993;-69
2021/11/23 05:51:03;;;;;;;142.60;100.93;;;;;;;-140.05;100.00;61859.38;4878146;29;20443;-69
2021/11/23 05:53:32;;;;;;;151.23;104.93;;;;;;;-140.05;100.00;61859.38;4878709;29;20447;-67
2021/11/23 05:55:59;;;;;;;163.93;113.57;;;;;;;-140.05;100.00;61859.38;4878881;29;20474;-63
2021/11/23 05:58:27;;;;;;;146.73;103.23;;;;;;;-140.05;100.00;61859.38;4878430;29;20443;-67
2021/11/23 06:00:54;;;;;;;174.90;125.83;;;;;;;-140.05;100.00;61859.38;4859566;29;20440;-67
2021/11/23 06:03:21;;;;;;;320.73;245.80;;;;;;;-140.05;100.00;61859.38;4859423;29;20453;-66
2021/11/23 06:05:49;;;;;;;145.03;104.37;;;;;;;-140.05;100.00;61859.38;4859830;29;20488;-67
2021/11/23 06:08:16;;;;;;;110.90;76.57;;;;;;;-140.05;100.00;61859.38;4860049;29;20531;-74
2021/11/23 06:10:43;;;;;;;109.53;73.23;;;;;;;-140.05;100.00;61859.38;4860221;29;20808;-70
2021/11/23 06:13:11;;;;;;;101.30;71.87;;;;;;;-140.05;100.00;61859.38;4860019;29;20440;-68
2021/11/23 06:15:41;;;;;;;96.40;67.53;;;;;;;-140.05;100.00;61859.38;4866831;29;20467;-64
2021/11/23 06:18:10;;;;;;;92.10;63.00;;;;;;;-140.05;100.00;61859.38;4878578;29;20459;-67
2021/11/23 06:20:37;;;;;;;92.67;59.63;;;;;;;-140.05;100.00;61859.38;4878623;29;20443;-61
2021/11/23 06:23:05;;;;;;;80.30;56.07;;;;;;;-140.05;100.00;61859.38;4877746;29;20447;-63
2021/11/23 06:25:32;;;;;;;75.87;51.20;;;;;;;-140.05;100.00;61859.38;4908125;29;20514;-70
2021/11/23 06:27:59;;;;;;;173.00;135.50;;;;;;;-140.05;100.00;61859.38;4877508;29;20989;-63
2021/11/23 06:30:26;;;;;;;190.00;135.30;;;;;;;-140.05;100.00;61859.38;4878083;29;20817;-66
2021/11/23 06:32:53;;;;;;;125.20;95.60;;;;;;;-140.05;100.00;61859.38;4891263;29;21011;-65
2021/11/23 06:35:23;;;;;;;56.23;38.50;;;;;;;-140.05;100.00;61859.38;4877998;29;20443;-67
2021/11/23 06:37:50;;;;;;;52.13;32.97;;;;;;;-140.05;100.00;61859.38;4877612;29;20474;-66
2021/11/23 06:40:17;;;;;;;43.33;31.43;;;;;;;-140.05;100.00;61859.38;4877103;29;20899;-66
2021/11/23 06:42:44;;;;;;;38.13;27.17;;;;;;;-140.05;100.00;61859.38;4876087;29;20437;-64
2021/11/23 06:45:13;;;;;;;34.13;23.47;;;;;;;-140.05;100.00;61859.38;4877558;29;20431;-65
2021/11/23 06:47:40;;;;;;;27.23;20.80;;;;;;;-140.05;100.00;61859.38;4877575;29;20429;-67
2021/11/23 06:50:09;;;;;;;27.27;20.10;;;;;;;-140.05;100.00;61859.38;4877863;29;20450;-67
2021/11/23 06:52:36;;;;;;;27.83;19.57;;;;;;;-140.05;100.00;61859.38;4877497;29;20453;-68
2021/11/23 06:55:03;;;;;;;25.70;18.83;;;;;;;-140.05;100.00;61859.38;4876666;29;20423;-66
2021/11/23 06:57:31;;;;;;;23.53;17.80;;;;;;;-140.05;100.00;61859.38;4876146;29;20486;-68
2021/11/23 06:59:59;;;;;;;23.50;18.23;;;;;;;-140.05;100.00;61859.38;4877390;29;20439;-63
2021/11/23 07:02:26;;;;;;;21.43;15.63;;;;;;;-140.05;100.00;61859.38;4877168;29;20424;-65
2021/11/23 07:04:53;;;;;;;17.93;14.37;;;;;;;-140.05;100.00;61859.38;4876547;29;20458;-64
2021/11/23 07:07:20;;;;;;;16.67;13.07;;;;;;;-140.05;100.00;61859.38;4876018;29;20443;-64
2021/11/23 07:09:47;;;;;;;18.80;13.13;;;;;;;-140.05;100.00;61859.38;4877133;29;21009;-61
2021/11/23 07:12:15;;;;;;;14.00;11.47;;;;;;;-140.05;100.00;61859.38;4877273;29;20509;-67
2021/11/23 07:14:42;;;;;;;13.13;10.97;;;;;;;-140.05;100.00;61859.38;4876497;29;20518;-65
2021/11/23 07:17:09;;;;;;;52.10;42.17;;;;;;;-140.05;100.00;61859.38;4875765;29;20459;-67
2021/11/23 07:19:36;;;;;;;13.93;11.47;;;;;;;-140.05;100.00;61859.38;4876935;29;20427;-64
2021/11/23 07:22:03;;;;;;;15.03;11.57;;;;;;;-140.05;100.00;61859.38;4877274;29;20443;-66
2021/11/23 07:24:31;;;;;;;13.20;10.93;;;;;;;-140.05;100.00;61859.38;4877690;29;20458;-68
2021/11/23 07:26:58;;;;;;;13.90;10.73;;;;;;;-140.05;100.00;61859.38;4876880;29;20435;-66
2021/11/23 07:29:25;;;;;;;13.50;10.60;;;;;;;-140.05;100.00;61859.38;4877124;29;20462;-64
2021/11/23 07:31:52;;;;;;;11.10;9.63;;;;;;;-140.05;100.00;61859.38;4877077;29;20476;-66
2021/11/23 07:34:20;;;;;;;9.30;8.10;;;;;;;-140.05;100.00;61859.38;4879920;29;21057;-69
2021/11/23 07:36:47;;;;;;;8.60;7.43;;;;;;;-140.05;100.00;61859.38;4876936;29;21057;-65
2021/11/23 07:39:14;;;;;;;7.97;7.17;;;;;;;-140.05;100.00;61859.38;4876857;29;20878;-64
2021/11/23 07:41:41;;;;;;;9.07;7.63;;;;;;;-140.05;100.00;61859.38;4876832;29;20420;-67
2021/11/23 07:44:10;;;;;;;10.07;7.67;;;;;;;-140.05;100.00;61859.38;4876881;29;20431;-67
2021/11/23 07:46:37;;;;;;;10.17;7.87;;;;;;;-140.05;100.00;61859.38;4877073;29;20538;-62
2021/11/23 07:49:06;;;;;;;9.30;8.07;;;;;;;-140.05;100.00;61859.38;4907090;29;20447;-64
2021/11/23 07:51:35;;;;;;;10.33;9.10;;;;;;;-140.05;100.00;61859.38;4878303;29;20431;-58
2021/11/23 07:54:02;;;;;;;11.07;9.20;;;;;;;-140.05;100.00;61859.38;4880339;29;20481;-64
2021/11/23 07:56:31;;;;;;;11.10;9.30;;;;;;;-140.05;100.00;61859.38;4877975;29;20577;-70
2021/11/23 07:58:58;;;;;;;10.07;9.07;;;;;;;-140.05;100.00;61859.38;4879083;29;20443;-68
2021/11/23 08:01:25;;;;;;;10.40;9.37;;;;;;;-140.05;100.00;61859.38;4881312;29;20449;-66
2021/11/23 08:03:52;;;;;;;11.93;9.33;;;;;;;-140.05;100.00;61859.38;4878431;29;20438;-69
2021/11/23 08:06:24;;;;;;;13.93;11.63;;;;;;;-140.05;100.00;61859.38;4877347;29;20825;-68
2021/11/23 08:08:51;;;;;;;13.13;11.73;;;;;;;-140.05;100.00;61859.38;4876842;29;20455;-68
2021/11/23 08:11:19;;;;;;;13.67;12.30;;;;;;;-140.05;100.00;61859.38;4877021;29;20443;-66
2021/11/23 08:13:47;;;;;;;15.03;13.43;;;;;;;-140.05;100.00;61859.38;4876410;29;20427;-64
2021/11/23 08:16:15;;;;;;;16.23;13.37;;;;;;;-140.05;100.00;61859.38;4877680;29;20438;-71
2021/11/23 08:18:42;;;;;;;14.97;13.40;;;;;;;-140.05;100.00;61859.38;4875530;29;20443;-67
2021/11/23 08:21:09;;;;;;;14.57;12.33;;;;;;;-140.05;100.00;61859.38;4876694;29;20441;-69
2021/11/23 08:23:36;;;;;;;14.33;12.30;;;;;;;-140.05;100.00;61859.38;4875910;29;20542;-63
2021/11/23 08:26:03;;;;;;;14.53;12.00;;;;;;;-140.05;100.00;61859.38;4875471;29;20419;-72
2021/11/23 08:28:30;;;;;;;16.13;11.67;;;;;;;-140.05;100.00;61859.38;4875194;29;20606;-65
2021/11/23 08:30:58;;;;;;;17.53;11.70;;;;;;;-140.05;100.00;61859.38;4876383;29;20420;-63
2021/11/23 08:33:26;;;;;;;19.47;12.40;;;;;;;-140.05;100.00;61859.38;4875711;29;20457;-67
2021/11/23 08:35:53;;;;;;;13.67;11.73;;;;;;;-140.05;100.00;61859.38;4875384;29;20447;-67
2021/11/23 08:38:20;;;;;;;20.80;12.80;;;;;;;-140.05;100.00;61859.38;4875433;29;20485;-69
2021/11/23 08:40:47;;;;;;;24.97;14.07;;;;;;;-140.05;100.00;61859.38;4876662;29;20447;-69
2021/11/23 08:43:15;;;;;;;18.77;13.40;;;;;;;-140.05;100.00;61859.38;4875682;29;20427;-63
2021/11/23 08:45:45;;;;;;;16.60;12.53;;;;;;;-140.05;100.00;61859.38;4875835;29;20466;-71
2021/11/23 08:48:13;;;;;;;16.93;12.07;;;;;;;-140.05;100.00;61859.38;4875650;29;20530;-67
2021/11/23 08:50:40;;;;;;;13.97;12.47;;;;;;;-140.05;100.00;61859.38;4876119;29;20923;-71
2021/11/23 08:53:08;;;;;;;16.37;12.77;;;;;;;-140.05;100.00;61859.38;4876226;29;20530;-64
2021/11/23 08:55:37;;;;;;;43.57;16.00;;;;;;;-140.05;100.00;61859.38;4876218;29;20439;-64
2021/11/23 08:58:05;;;;;;;19.83;13.93;;;;;;;-140.05;100.00;61859.38;4876069;29;20485;-63
2021/11/23 09:00:33;;;;;;;21.53;14.37;;;;;;;-140.05;100.00;61859.38;4876579;29;20447;-62
2021/11/23 09:03:00;;;;;;;17.63;13.40;;;;;;;-140.05;100.00;61859.38;4875856;29;20869;-71
2021/11/23 09:05:32;;;;;;;19.77;14.63;;;;;;;-140.05;100.00;61859.38;4876605;29;20838;-62
2021/11/23 09:08:01;;;;;;;18.40;14.37;;;;;;;-140.05;100.00;61859.38;4878632;29;20443;-64
2021/11/23 09:10:32;;;;;;;20.00;15.00;;;;;;;-140.05;100.00;61859.38;4880182;29;20416;-65
2021/11/23 09:13:00;;;;;;;19.07;15.30;;;;;;;-140.05;100.00;61859.38;4879283;29;20439;-66
2021/11/23 09:15:28;;;;;;;19.07;15.70;;;;;;;-140.05;100.00;61859.38;4879820;29;20438;-63
2021/11/23 09:17:58;;;;;;;20.47;16.20;;;;;;;-140.05;100.00;61859.38;4878952;29;20487;-68
2021/11/23 09:20:33;;;;;;;18.63;15.53;;;;;;;-140.05;100.00;61859.38;4879368;29;20435;-65
2021/11/23 09:23:09;;;;;;;18.20;15.47;;;;;;;-140.05;100.00;61859.38;4878539;29;20438;-67
2021/11/23 09:25:39;;;;;;;20.57;16.80;;;;;;;-140.05;100.00;61859.38;4879774;29;20481;-68
2021/11/23 09:28:08;;;;;;;19.37;16.53;;;;;;;-140.05;100.00;61859.38;4879841;29;20435;-66
2021/11/23 09:30:36;;;;;;;20.47;16.50;;;;;;;-140.05;100.00;61859.38;4880700;29;20534;-69
2021/11/23 09:33:03;;;;;;;21.10;17.67;;;;;;;-140.05;100.00;61859.38;4909906;29;20455;-67
2021/11/23 09:35:30;;;;;;;21.40;18.77;;;;;;;-140.05;100.00;61859.38;4879954;29;20510;-62
2021/11/23 09:37:58;;;;;;;22.50;18.47;;;;;;;-140.05;100.00;61859.38;4879688;29;20471;-61
2021/11/23 09:40:25;;;;;;;23.37;19.40;;;;;;;-140.05;100.00;61859.38;4879471;29;20548;-64
2021/11/23 09:42:53;;;;;;;23.10;18.47;;;;;;;-140.05;100.00;61859.38;4879106;29;20439;-62
2021/11/23 09:45:21;;;;;;;21.17;17.57;;;;;;;-140.05;100.00;61859.38;4879334;29;20450;-67
2021/11/23 09:47:49;;;;;;;25.40;19.30;;;;;;;-140.05;100.00;61859.38;4878981;29;20439;-67
2021/11/23 09:50:16;;;;;;;23.80;19.37;;;;;;;-140.05;100.00;61859.38;4879442;29;20458;-64
2021/11/23 09:52:43;;;;;;;24.40;18.60;;;;;;;-140.05;100.00;61859.38;4878316;29;20433;-70
2021/11/23 09:55:13;;;;;;;20.60;18.20;;;;;;;-140.05;100.00;61859.38;4878108;29;20458;-65
2021/11/23 09:57:40;;;;;;;24.87;19.27;;;;;;;-140.05;100.00;61859.38;4877784;29;20474;-66
2021/11/23 10:00:30;;;;;;;21.20;17.57;;;;;;;-140.05;100.00;61859.38;4879063;29;20443;-68
2021/11/23 10:03:09;;;;;;;21.37;17.63;;;;;;;-140.05;100.00;61859.38;4875004;29;20455;-62
2021/11/23 10:05:39;;;;;;;19.87;17.00;;;;;;;-140.05;100.00;61859.38;4878579;29;20424;-68
2021/11/23 10:08:09;;;;;;;20.27;16.90;;;;;;;-140.05;100.00;61859.38;4877796;29;20427;-63
2021/11/23 10:10:45;;;;;;;21.53;17.20;;;;;;;-140.05;100.00;61859.38;4878928;29;20822;-64
2021/11/23 10:13:15;;;;;;;23.23;18.20;;;;;;;-140.05;100.00;61859.38;4877478;29;20946;-62
2021/11/23 10:15:45;;;;;;;22.50;17.13;;;;;;;-140.05;100.00;61859.38;4877582;29;20439;-65
2021/11/23 10:18:24;;;;;;;23.13;17.40;;;;;;;-140.05;100.00;61859.38;4876480;29;20491;-60
2021/11/23 10:20:58;;;;;;;22.17;17.67;;;;;;;-140.05;100.00;61859.38;4879034;29;20434;-64
2021/11/23 10:23:34;;;;;;;21.83;17.63;;;;;;;-140.05;100.00;61859.38;4877842;29;20508;-68
2021/11/23 10:26:06;;;;;;;23.83;17.83;;;;;;;-140.05;100.00;61859.38;4878567;29;20895;-64
2021/11/23 10:28:33;;;;;;;21.60;17.97;;;;;;;-140.05;100.00;61859.38;4877824;29;20438;-62
2021/11/23 10:31:01;;;;;;;22.57;18.30;;;;;;;-140.05;100.00;61859.38;4878346;29;20435;-62
2021/11/23 10:33:32;;;;;;;22.03;16.47;;;;;;;-140.05;100.00;61859.38;4877630;29;20943;-64
2021/11/23 10:36:06;;;;;;;22.23;16.87;;;;;;;-140.05;100.00;61859.38;4878208;29;20476;-67
2021/11/23 10:38:34;;;;;;;19.20;15.93;;;;;;;-140.05;100.00;61859.38;4877274;29;20513;-64
2021/11/23 10:41:13;;;;;;;21.30;16.67;;;;;;;-140.05;100.00;61859.38;4878237;29;20482;-65
2021/11/23 10:43:42;;;;;;;18.40;15.87;;;;;;;-140.05;100.00;61859.38;4877945;29;20427;-64
2021/11/23 10:46:16;;;;;;;20.07;16.37;;;;;;;-140.05;100.00;61859.38;4877470;29;20523;-66
2021/11/23 10:48:56;;;;;;;21.60;17.80;;;;;;;-140.05;100.00;61859.38;4877620;29;20538;-66
2021/11/23 10:51:26;;;;;;;18.23;14.40;;;;;;;-140.05;100.00;61859.38;4877628;29;20913;-67
2021/11/23 10:54:12;;;;;;;20.67;15.37;;;;;;;-140.05;100.00;61859.38;4876825;29;20483;-70
2021/11/23 10:56:59;;;;;;;22.50;16.33;;;;;;;-140.05;100.00;61859.38;4876372;29;20451;-66